sensor_id;sensor_type;location;lat;lon;timestamp;temperature;humidity
39925;DHT22;25592;49.986;11.618;2022-08-21T00:01:49;21.00;99.90
39925;DHT22;25592;49.986;11.618;2022-08-21T00:04:35;21.00;99.90
39925;DHT22;25592;49.986;11.618;2022-08-21T00:07:32;21.10;99.90
39925;DHT22;25592;49.986;11.618;2022-08-21T00:10:19;21.10;99.90
39925;DHT22;25592;49.986;11.618;2022-08-21T00:13:05;21.10;99.90
39925;DHT22;25592;49.986;11.618;2022-08-21T00:15:50;21.10;99.90
39925;DHT22;25592;49.986;11.618;2022-08-21T00:18:36;21.10;99.90
39925;DHT22;25592;49.986;11.618;2022-08-21T00:21:22;21.10;99.90
39925;DHT22;25592;49.986;11.618;2022-08-21T00:24:07;21.00;99.90
39925;DHT22;25592;49.986;11.618;2022-08-21T00:26:53;21.00;99.90
39925;DHT22;25592;49.986;11.618;2022-08-21T00:29:39;21.00;99.90
39925;DHT22;25592;49.986;11.618;2022-08-21T00:32:26;21.00;99.90
39925;DHT22;25592;49.986;11.618;2022-08-21T00:35:16;20.80;99.90
39925;DHT22;25592;49.986;11.618;2022-08-21T00:38:02;20.80;99.90
39925;DHT22;25592;49.986;11.618;2022-08-21T00:40:57;20.80;99.90
39925;DHT22;25592;49.986;11.618;2022-08-21T00:43:57;20.80;99.90
39925;DHT22;25592;49.986;11.618;2022-08-21T00:46:43;20.70;99.90
39925;DHT22;25592;49.986;11.618;2022-08-21T00:49:28;20.80;99.90
39925;DHT22;25592;49.986;11.618;2022-08-21T00:52:19;20.80;99.90
39925;DHT22;25592;49.986;11.618;2022-08-21T00:55:08;20.80;99.90
39925;DHT22;25592;49.986;11.618;2022-08-21T00:57:57;20.90;99.90
39925;DHT22;25592;49.986;11.618;2022-08-21T01:00:45;20.90;99.90
39925;DHT22;25592;49.986;11.618;2022-08-21T01:03:32;20.90;99.90
39925;DHT22;25592;49.986;11.618;2022-08-21T01:06:19;20.80;99.90
39925;DHT22;25592;49.986;11.618;2022-08-21T01:09:04;20.80;99.90
39925;DHT22;25592;49.986;11.618;2022-08-21T01:11:50;20.90;99.90
39925;DHT22;25592;49.986;11.618;2022-08-21T01:14:36;20.80;99.90
39925;DHT22;25592;49.986;11.618;2022-08-21T01:17:22;20.80;99.90
39925;DHT22;25592;49.986;11.618;2022-08-21T01:20:10;20.80;99.90
39925;DHT22;25592;49.986;11.618;2022-08-21T01:22:55;20.80;99.90
39925;DHT22;25592;49.986;11.618;2022-08-21T01:25:41;20.70;99.90
39925;DHT22;25592;49.986;11.618;2022-08-21T01:28:27;20.70;99.90
39925;DHT22;25592;49.986;11.618;2022-08-21T01:31:17;20.80;99.90
39925;DHT22;25592;49.986;11.618;2022-08-21T01:34:11;20.70;99.90
39925;DHT22;25592;49.986;11.618;2022-08-21T01:36:56;20.70;99.90
39925;DHT22;25592;49.986;11.618;2022-08-21T01:39:42;20.70;99.90
39925;DHT22;25592;49.986;11.618;2022-08-21T01:42:28;20.60;99.90
39925;DHT22;25592;49.986;11.618;2022-08-21T01:45:14;20.50;99.90
39925;DHT22;25592;49.986;11.618;2022-08-21T01:48:00;20.50;99.90
39925;DHT22;25592;49.986;11.618;2022-08-21T01:50:45;20.50;99.90
39925;DHT22;25592;49.986;11.618;2022-08-21T01:53:36;20.50;99.90
39925;DHT22;25592;49.986;11.618;2022-08-21T01:56:22;20.40;99.90
39925;DHT22;25592;49.986;11.618;2022-08-21T01:59:08;20.50;99.90
39925;DHT22;25592;49.986;11.618;2022-08-21T02:01:54;20.50;99.90
39925;DHT22;25592;49.986;11.618;2022-08-21T02:04:39;20.50;99.90
39925;DHT22;25592;49.986;11.618;2022-08-21T02:07:25;20.70;99.90
39925;DHT22;25592;49.986;11.618;2022-08-21T02:10:14;20.70;99.90
39925;DHT22;25592;49.986;11.618;2022-08-21T02:13:00;20.70;99.90
39925;DHT22;25592;49.986;11.618;2022-08-21T02:15:46;20.60;99.90
39925;DHT22;25592;49.986;11.618;2022-08-21T02:18:31;20.50;99.90
39925;DHT22;25592;49.986;11.618;2022-08-21T02:21:17;20.50;99.90
39925;DHT22;25592;49.986;11.618;2022-08-21T02:24:02;20.60;99.90
39925;DHT22;25592;49.986;11.618;2022-08-21T02:26:48;20.60;99.90
39925;DHT22;25592;49.986;11.618;2022-08-21T02:29:33;20.60;99.90
39925;DHT22;25592;49.986;11.618;2022-08-21T02:32:18;20.60;99.90
39925;DHT22;25592;49.986;11.618;2022-08-21T02:35:04;20.60;99.90
39925;DHT22;25592;49.986;11.618;2022-08-21T02:37:54;20.50;99.90
39925;DHT22;25592;49.986;11.618;2022-08-21T02:40:41;20.50;99.90
39925;DHT22;25592;49.986;11.618;2022-08-21T02:43:32;20.50;99.90
39925;DHT22;25592;49.986;11.618;2022-08-21T02:46:19;20.60;99.90
39925;DHT22;25592;49.986;11.618;2022-08-21T02:49:05;20.60;99.90
39925;DHT22;25592;49.986;11.618;2022-08-21T02:51:50;20.50;99.90
39925;DHT22;25592;49.986;11.618;2022-08-21T02:54:35;20.50;99.90
39925;DHT22;25592;49.986;11.618;2022-08-21T02:57:21;20.50;99.90
39925;DHT22;25592;49.986;11.618;2022-08-21T03:00:07;20.50;99.90
39925;DHT22;25592;49.986;11.618;2022-08-21T03:02:54;20.60;99.90
39925;DHT22;25592;49.986;11.618;2022-08-21T03:05:42;20.60;99.90
39925;DHT22;25592;49.986;11.618;2022-08-21T03:08:27;20.60;99.90
39925;DHT22;25592;49.986;11.618;2022-08-21T03:11:14;20.60;99.90
39925;DHT22;25592;49.986;11.618;2022-08-21T03:13:59;20.50;99.90
39925;DHT22;25592;49.986;11.618;2022-08-21T03:16:45;20.60;99.90
39925;DHT22;25592;49.986;11.618;2022-08-21T03:19:30;20.60;99.90
39925;DHT22;25592;49.986;11.618;2022-08-21T03:22:16;20.50;99.90
39925;DHT22;25592;49.986;11.618;2022-08-21T03:25:03;20.60;99.90
39925;DHT22;25592;49.986;11.618;2022-08-21T03:27:51;20.60;99.90
39925;DHT22;25592;49.986;11.618;2022-08-21T03:30:44;20.40;99.90
39925;DHT22;25592;49.986;11.618;2022-08-21T03:33:29;20.50;99.90
39925;DHT22;25592;49.986;11.618;2022-08-21T03:36:15;20.40;99.90
39925;DHT22;25592;49.986;11.618;2022-08-21T03:39:01;20.40;99.90
39925;DHT22;25592;49.986;11.618;2022-08-21T03:41:46;20.50;99.90
39925;DHT22;25592;49.986;11.618;2022-08-21T03:44:32;20.40;99.90
39925;DHT22;25592;49.986;11.618;2022-08-21T03:47:17;20.50;99.90
39925;DHT22;25592;49.986;11.618;2022-08-21T03:50:04;20.50;99.90
39925;DHT22;25592;49.986;11.618;2022-08-21T03:52:50;20.50;99.90
39925;DHT22;25592;49.986;11.618;2022-08-21T03:55:35;20.50;99.90
39925;DHT22;25592;49.986;11.618;2022-08-21T03:58:24;20.50;99.90
39925;DHT22;25592;49.986;11.618;2022-08-21T04:01:10;20.50;99.90
39925;DHT22;25592;49.986;11.618;2022-08-21T04:03:55;20.50;99.90
39925;DHT22;25592;49.986;11.618;2022-08-21T04:06:41;20.40;99.90
39925;DHT22;25592;49.986;11.618;2022-08-21T04:09:26;20.50;99.90
39925;DHT22;25592;49.986;11.618;2022-08-21T04:12:11;20.50;99.90
39925;DHT22;25592;49.986;11.618;2022-08-21T04:14:57;20.30;99.90
39925;DHT22;25592;49.986;11.618;2022-08-21T04:17:42;20.30;99.90
39925;DHT22;25592;49.986;11.618;2022-08-21T04:20:28;20.10;99.90
39925;DHT22;25592;49.986;11.618;2022-08-21T04:23:13;20.10;99.90
39925;DHT22;25592;49.986;11.618;2022-08-21T04:26:10;20.00;99.90
39925;DHT22;25592;49.986;11.618;2022-08-21T04:28:55;20.20;99.90
39925;DHT22;25592;49.986;11.618;2022-08-21T04:31:42;20.20;99.90
39925;DHT22;25592;49.986;11.618;2022-08-21T04:34:28;20.20;99.90
39925;DHT22;25592;49.986;11.618;2022-08-21T04:37:13;20.20;99.90
39925;DHT22;25592;49.986;11.618;2022-08-21T04:40:01;20.20;99.90
39925;DHT22;25592;49.986;11.618;2022-08-21T04:42:53;20.10;99.90
39925;DHT22;25592;49.986;11.618;2022-08-21T04:45:40;20.20;99.90
39925;DHT22;25592;49.986;11.618;2022-08-21T04:48:26;20.20;99.90
39925;DHT22;25592;49.986;11.618;2022-08-21T04:51:19;20.20;99.90
39925;DHT22;25592;49.986;11.618;2022-08-21T04:54:20;20.10;99.90
39925;DHT22;25592;49.986;11.618;2022-08-21T04:57:07;20.10;99.90
39925;DHT22;25592;49.986;11.618;2022-08-21T04:59:54;20.10;99.90
39925;DHT22;25592;49.986;11.618;2022-08-21T05:02:40;20.10;99.90
39925;DHT22;25592;49.986;11.618;2022-08-21T05:05:28;20.10;99.90
39925;DHT22;25592;49.986;11.618;2022-08-21T05:08:17;20.00;99.90
39925;DHT22;25592;49.986;11.618;2022-08-21T05:11:04;19.90;99.90
39925;DHT22;25592;49.986;11.618;2022-08-21T05:13:50;19.90;99.90
39925;DHT22;25592;49.986;11.618;2022-08-21T05:16:41;20.00;99.90
39925;DHT22;25592;49.986;11.618;2022-08-21T05:19:28;20.10;99.90
39925;DHT22;25592;49.986;11.618;2022-08-21T05:22:22;20.20;99.90
39925;DHT22;25592;49.986;11.618;2022-08-21T05:25:09;20.20;99.90
39925;DHT22;25592;49.986;11.618;2022-08-21T05:27:54;20.20;99.90
39925;DHT22;25592;49.986;11.618;2022-08-21T05:30:44;20.20;99.90
39925;DHT22;25592;49.986;11.618;2022-08-21T05:33:30;20.20;99.90
39925;DHT22;25592;49.986;11.618;2022-08-21T05:36:17;20.20;99.90
39925;DHT22;25592;49.986;11.618;2022-08-21T05:39:03;20.30;99.90
39925;DHT22;25592;49.986;11.618;2022-08-21T05:41:48;20.30;99.90
39925;DHT22;25592;49.986;11.618;2022-08-21T05:44:34;20.30;99.90
39925;DHT22;25592;49.986;11.618;2022-08-21T05:47:19;20.20;99.90
39925;DHT22;25592;49.986;11.618;2022-08-21T05:50:05;20.30;99.90
39925;DHT22;25592;49.986;11.618;2022-08-21T05:52:50;20.30;99.90
39925;DHT22;25592;49.986;11.618;2022-08-21T05:55:42;20.20;99.90
39925;DHT22;25592;49.986;11.618;2022-08-21T05:58:32;20.10;99.90
39925;DHT22;25592;49.986;11.618;2022-08-21T06:01:17;20.20;99.90
39925;DHT22;25592;49.986;11.618;2022-08-21T06:04:03;20.20;99.90
39925;DHT22;25592;49.986;11.618;2022-08-21T06:06:48;20.30;99.90
39925;DHT22;25592;49.986;11.618;2022-08-21T06:09:34;20.20;99.90
39925;DHT22;25592;49.986;11.618;2022-08-21T06:12:19;20.20;99.90
39925;DHT22;25592;49.986;11.618;2022-08-21T06:15:05;20.20;99.90
39925;DHT22;25592;49.986;11.618;2022-08-21T06:17:52;20.20;99.90
39925;DHT22;25592;49.986;11.618;2022-08-21T06:20:39;20.40;99.90
39925;DHT22;25592;49.986;11.618;2022-08-21T06:23:24;20.40;99.90
39925;DHT22;25592;49.986;11.618;2022-08-21T06:26:17;20.50;99.90
39925;DHT22;25592;49.986;11.618;2022-08-21T06:29:03;20.50;99.90
39925;DHT22;25592;49.986;11.618;2022-08-21T06:31:50;20.50;99.90
39925;DHT22;25592;49.986;11.618;2022-08-21T06:34:37;20.60;99.90
39925;DHT22;25592;49.986;11.618;2022-08-21T06:37:25;20.50;99.90
39925;DHT22;25592;49.986;11.618;2022-08-21T06:40:10;20.40;99.90
39925;DHT22;25592;49.986;11.618;2022-08-21T06:42:58;20.40;99.90
39925;DHT22;25592;49.986;11.618;2022-08-21T06:45:45;20.50;99.90
39925;DHT22;25592;49.986;11.618;2022-08-21T06:48:31;20.60;99.90
39925;DHT22;25592;49.986;11.618;2022-08-21T06:51:18;20.50;99.90
39925;DHT22;25592;49.986;11.618;2022-08-21T06:54:03;20.50;99.90
39925;DHT22;25592;49.986;11.618;2022-08-21T06:56:49;20.60;99.90
39925;DHT22;25592;49.986;11.618;2022-08-21T06:59:34;20.70;99.90
39925;DHT22;25592;49.986;11.618;2022-08-21T07:02:19;20.80;99.90
39925;DHT22;25592;49.986;11.618;2022-08-21T07:05:05;20.80;99.90
39925;DHT22;25592;49.986;11.618;2022-08-21T07:08:02;20.90;99.90
39925;DHT22;25592;49.986;11.618;2022-08-21T07:10:48;21.00;99.90
39925;DHT22;25592;49.986;11.618;2022-08-21T07:13:33;21.10;99.90
39925;DHT22;25592;49.986;11.618;2022-08-21T07:16:20;21.20;99.90
39925;DHT22;25592;49.986;11.618;2022-08-21T07:19:05;21.20;99.90
39925;DHT22;25592;49.986;11.618;2022-08-21T07:21:52;21.20;99.90
39925;DHT22;25592;49.986;11.618;2022-08-21T07:24:38;21.20;99.90
39925;DHT22;25592;49.986;11.618;2022-08-21T07:27:23;21.10;99.90
39925;DHT22;25592;49.986;11.618;2022-08-21T07:30:09;21.20;99.90
39925;DHT22;25592;49.986;11.618;2022-08-21T07:32:54;21.30;99.90
39925;DHT22;25592;49.986;11.618;2022-08-21T07:35:40;21.10;99.90
39925;DHT22;25592;49.986;11.618;2022-08-21T07:38:25;21.20;99.90
39925;DHT22;25592;49.986;11.618;2022-08-21T07:41:17;21.20;99.90
39925;DHT22;25592;49.986;11.618;2022-08-21T07:44:03;21.20;99.90
39925;DHT22;25592;49.986;11.618;2022-08-21T07:46:50;21.10;99.90
39925;DHT22;25592;49.986;11.618;2022-08-21T07:49:36;21.20;99.90
39925;DHT22;25592;49.986;11.618;2022-08-21T07:52:21;21.30;99.90
39925;DHT22;25592;49.986;11.618;2022-08-21T07:55:10;21.50;99.90
39925;DHT22;25592;49.986;11.618;2022-08-21T07:57:55;21.50;99.90
39925;DHT22;25592;49.986;11.618;2022-08-21T08:00:41;21.60;99.90
39925;DHT22;25592;49.986;11.618;2022-08-21T08:03:26;21.70;99.90
39925;DHT22;25592;49.986;11.618;2022-08-21T08:06:13;21.80;99.90
39925;DHT22;25592;49.986;11.618;2022-08-21T08:08:58;21.70;99.90
39925;DHT22;25592;49.986;11.618;2022-08-21T08:11:44;21.90;99.90
39925;DHT22;25592;49.986;11.618;2022-08-21T08:14:29;21.80;99.90
39925;DHT22;25592;49.986;11.618;2022-08-21T08:17:16;21.80;99.90
39925;DHT22;25592;49.986;11.618;2022-08-21T08:20:01;22.00;99.90
39925;DHT22;25592;49.986;11.618;2022-08-21T08:22:47;22.20;99.90
39925;DHT22;25592;49.986;11.618;2022-08-21T08:25:34;22.30;99.90
39925;DHT22;25592;49.986;11.618;2022-08-21T08:28:20;22.40;99.90
39925;DHT22;25592;49.986;11.618;2022-08-21T08:31:06;22.40;99.90
39925;DHT22;25592;49.986;11.618;2022-08-21T08:33:51;22.40;99.90
39925;DHT22;25592;49.986;11.618;2022-08-21T08:36:37;22.40;99.90
39925;DHT22;25592;49.986;11.618;2022-08-21T08:39:25;22.50;99.90
39925;DHT22;25592;49.986;11.618;2022-08-21T08:42:28;22.70;99.90
39925;DHT22;25592;49.986;11.618;2022-08-21T08:45:20;22.80;99.90
39925;DHT22;25592;49.986;11.618;2022-08-21T08:48:13;22.70;99.90
39925;DHT22;25592;49.986;11.618;2022-08-21T08:51:00;22.80;99.90
39925;DHT22;25592;49.986;11.618;2022-08-21T08:54:00;22.90;99.90
39925;DHT22;25592;49.986;11.618;2022-08-21T08:56:47;23.10;99.90
39925;DHT22;25592;49.986;11.618;2022-08-21T08:59:40;23.00;99.90
39925;DHT22;25592;49.986;11.618;2022-08-21T09:02:27;23.10;99.90
39925;DHT22;25592;49.986;11.618;2022-08-21T09:05:33;23.30;99.90
39925;DHT22;25592;49.986;11.618;2022-08-21T09:12:02;23.30;99.40
39925;DHT22;25592;49.986;11.618;2022-08-21T09:15:02;23.30;99.40
39925;DHT22;25592;49.986;11.618;2022-08-21T09:21:11;24.00;98.10
39925;DHT22;25592;49.986;11.618;2022-08-21T09:24:02;24.10;96.70
39925;DHT22;25592;49.986;11.618;2022-08-21T09:27:08;24.10;96.60
39925;DHT22;25592;49.986;11.618;2022-08-21T09:29:54;24.30;96.10
39925;DHT22;25592;49.986;11.618;2022-08-21T09:32:39;24.50;95.60
39925;DHT22;25592;49.986;11.618;2022-08-21T09:35:25;24.60;95.90
39925;DHT22;25592;49.986;11.618;2022-08-21T09:38:11;24.70;94.80
39925;DHT22;25592;49.986;11.618;2022-08-21T09:41:09;24.90;94.60
39925;DHT22;25592;49.986;11.618;2022-08-21T09:43:55;25.10;94.30
39925;DHT22;25592;49.986;11.618;2022-08-21T09:46:50;25.30;92.50
39925;DHT22;25592;49.986;11.618;2022-08-21T09:49:39;25.20;92.40
39925;DHT22;25592;49.986;11.618;2022-08-21T09:52:25;25.20;93.10
39925;DHT22;25592;49.986;11.618;2022-08-21T09:56:03;25.00;92.80
39925;DHT22;25592;49.986;11.618;2022-08-21T09:58:43;25.00;92.90
39925;DHT22;25592;49.986;11.618;2022-08-21T10:01:29;25.40;92.00
39925;DHT22;25592;49.986;11.618;2022-08-21T10:04:18;25.30;92.20
39925;DHT22;25592;49.986;11.618;2022-08-21T10:07:09;25.10;92.90
39925;DHT22;25592;49.986;11.618;2022-08-21T10:10:18;24.80;93.60
39925;DHT22;25592;49.986;11.618;2022-08-21T10:13:07;25.00;93.30
39925;DHT22;25592;49.986;11.618;2022-08-21T10:16:07;24.80;93.30
39925;DHT22;25592;49.986;11.618;2022-08-21T10:25:14;25.20;91.80
39925;DHT22;25592;49.986;11.618;2022-08-21T10:28:17;25.80;91.00
39925;DHT22;25592;49.986;11.618;2022-08-21T10:31:25;26.30;90.90
39925;DHT22;25592;49.986;11.618;2022-08-21T10:43:57;27.00;86.70
39925;DHT22;25592;49.986;11.618;2022-08-21T10:46:59;26.80;87.00
39925;DHT22;25592;49.986;11.618;2022-08-21T10:50:01;26.90;84.90
39925;DHT22;25592;49.986;11.618;2022-08-21T10:53:10;26.80;83.70
39925;DHT22;25592;49.986;11.618;2022-08-21T10:56:21;26.60;84.50
39925;DHT22;25592;49.986;11.618;2022-08-21T11:05:57;26.80;85.00
39925;DHT22;25592;49.986;11.618;2022-08-21T11:08:45;26.80;83.50
39925;DHT22;25592;49.986;11.618;2022-08-21T11:11:36;26.70;83.90
39925;DHT22;25592;49.986;11.618;2022-08-21T11:17:32;26.70;83.70
39925;DHT22;25592;49.986;11.618;2022-08-21T11:20:29;27.30;82.50
39925;DHT22;25592;49.986;11.618;2022-08-21T11:23:26;27.60;78.90
39925;DHT22;25592;49.986;11.618;2022-08-21T11:26:30;27.60;79.50
39925;DHT22;25592;49.986;11.618;2022-08-21T11:29:25;28.20;77.80
39925;DHT22;25592;49.986;11.618;2022-08-21T11:38:42;28.20;77.60
39925;DHT22;25592;49.986;11.618;2022-08-21T11:41:37;28.90;76.00
39925;DHT22;25592;49.986;11.618;2022-08-21T11:44:48;29.10;73.20
39925;DHT22;25592;49.986;11.618;2022-08-21T11:48:03;28.90;71.50
39925;DHT22;25592;49.986;11.618;2022-08-21T11:50:52;29.00;71.30
39925;DHT22;25592;49.986;11.618;2022-08-21T11:54:03;29.50;71.00
39925;DHT22;25592;49.986;11.618;2022-08-21T11:56:57;29.30;69.00
39925;DHT22;25592;49.986;11.618;2022-08-21T12:02:48;29.70;65.60
39925;DHT22;25592;49.986;11.618;2022-08-21T12:05:43;29.80;64.40
39925;DHT22;25592;49.986;11.618;2022-08-21T12:08:37;29.90;65.50
39925;DHT22;25592;49.986;11.618;2022-08-21T12:11:25;29.60;65.50
39925;DHT22;25592;49.986;11.618;2022-08-21T12:14:17;29.30;64.70
39925;DHT22;25592;49.986;11.618;2022-08-21T12:17:08;29.70;64.90
39925;DHT22;25592;49.986;11.618;2022-08-21T12:29:05;30.40;61.20
39925;DHT22;25592;49.986;11.618;2022-08-21T12:32:02;30.10;60.50
39925;DHT22;25592;49.986;11.618;2022-08-21T12:35:17;29.60;60.40
39925;DHT22;25592;49.986;11.618;2022-08-21T12:38:20;29.40;61.00
39925;DHT22;25592;49.986;11.618;2022-08-21T12:41:12;29.30;61.20
39925;DHT22;25592;49.986;11.618;2022-08-21T12:44:12;28.90;64.60
39925;DHT22;25592;49.986;11.618;2022-08-21T12:47:27;28.60;66.60
39925;DHT22;25592;49.986;11.618;2022-08-21T12:50:19;28.40;66.70
39925;DHT22;25592;49.986;11.618;2022-08-21T12:56:10;28.30;65.40
39925;DHT22;25592;49.986;11.618;2022-08-21T12:59:04;28.30;64.70
39925;DHT22;25592;49.986;11.618;2022-08-21T13:01:51;28.00;61.50
39925;DHT22;25592;49.986;11.618;2022-08-21T13:04:41;27.70;63.60
39925;DHT22;25592;49.986;11.618;2022-08-21T13:07:31;27.50;66.40
39925;DHT22;25592;49.986;11.618;2022-08-21T13:13:20;27.60;69.70
39925;DHT22;25592;49.986;11.618;2022-08-21T13:16:12;27.70;70.30
39925;DHT22;25592;49.986;11.618;2022-08-21T13:19:06;27.80;69.70
39925;DHT22;25592;49.986;11.618;2022-08-21T13:21:52;27.60;70.00
39925;DHT22;25592;49.986;11.618;2022-08-21T13:24:40;27.60;69.80
39925;DHT22;25592;49.986;11.618;2022-08-21T13:27:29;27.70;69.00
39925;DHT22;25592;49.986;11.618;2022-08-21T13:30:20;28.60;67.10
39925;DHT22;25592;49.986;11.618;2022-08-21T13:33:06;29.40;67.70
39925;DHT22;25592;49.986;11.618;2022-08-21T13:36:01;30.10;64.20
39925;DHT22;25592;49.986;11.618;2022-08-21T13:38:48;30.50;61.20
39925;DHT22;25592;49.986;11.618;2022-08-21T13:41:35;30.80;61.20
39925;DHT22;25592;49.986;11.618;2022-08-21T13:44:43;30.40;60.60
39925;DHT22;25592;49.986;11.618;2022-08-21T13:47:28;30.40;61.40
39925;DHT22;25592;49.986;11.618;2022-08-21T13:50:15;30.00;61.80
39925;DHT22;25592;49.986;11.618;2022-08-21T13:53:05;29.60;63.20
39925;DHT22;25592;49.986;11.618;2022-08-21T13:55:50;29.50;63.10
39925;DHT22;25592;49.986;11.618;2022-08-21T13:58:45;29.40;63.10
39925;DHT22;25592;49.986;11.618;2022-08-21T14:01:38;29.40;62.30
39925;DHT22;25592;49.986;11.618;2022-08-21T14:04:33;29.50;62.50
39925;DHT22;25592;49.986;11.618;2022-08-21T14:07:34;30.00;62.00
39925;DHT22;25592;49.986;11.618;2022-08-21T14:10:22;30.40;61.40
39925;DHT22;25592;49.986;11.618;2022-08-21T14:16:27;31.00;56.30
39925;DHT22;25592;49.986;11.618;2022-08-21T14:19:41;31.30;56.40
39925;DHT22;25592;49.986;11.618;2022-08-21T14:22:45;31.30;55.50
39925;DHT22;25592;49.986;11.618;2022-08-21T14:25:41;31.30;52.80
39925;DHT22;25592;49.986;11.618;2022-08-21T14:28:34;31.50;53.20
39925;DHT22;25592;49.986;11.618;2022-08-21T14:31:21;31.70;52.70
39925;DHT22;25592;49.986;11.618;2022-08-21T14:34:06;31.90;52.20
39925;DHT22;25592;49.986;11.618;2022-08-21T14:37:04;32.10;52.60
39925;DHT22;25592;49.986;11.618;2022-08-21T14:39:49;32.00;50.60
39925;DHT22;25592;49.986;11.618;2022-08-21T14:42:35;31.70;50.30
39925;DHT22;25592;49.986;11.618;2022-08-21T14:45:26;31.70;51.70
39925;DHT22;25592;49.986;11.618;2022-08-21T14:48:13;31.40;51.10
39925;DHT22;25592;49.986;11.618;2022-08-21T14:50:58;31.60;52.10
39925;DHT22;25592;49.986;11.618;2022-08-21T14:53:45;32.00;51.90
39925;DHT22;25592;49.986;11.618;2022-08-21T14:56:31;32.30;51.40
39925;DHT22;25592;49.986;11.618;2022-08-21T14:59:17;32.40;51.10
39925;DHT22;25592;49.986;11.618;2022-08-21T15:02:05;32.50;50.90
39925;DHT22;25592;49.986;11.618;2022-08-21T15:04:50;32.20;51.40
39925;DHT22;25592;49.986;11.618;2022-08-21T15:07:36;32.20;52.00
39925;DHT22;25592;49.986;11.618;2022-08-21T15:10:23;32.20;54.20
39925;DHT22;25592;49.986;11.618;2022-08-21T15:13:09;31.90;53.60
39925;DHT22;25592;49.986;11.618;2022-08-21T15:15:54;32.30;54.30
39925;DHT22;25592;49.986;11.618;2022-08-21T15:18:41;32.40;53.60
39925;DHT22;25592;49.986;11.618;2022-08-21T15:21:27;32.50;53.20
39925;DHT22;25592;49.986;11.618;2022-08-21T15:24:13;32.70;52.00
39925;DHT22;25592;49.986;11.618;2022-08-21T15:27:01;32.70;53.20
39925;DHT22;25592;49.986;11.618;2022-08-21T15:29:46;32.90;53.30
39925;DHT22;25592;49.986;11.618;2022-08-21T15:32:32;33.10;52.40
39925;DHT22;25592;49.986;11.618;2022-08-21T15:35:17;33.10;52.80
39925;DHT22;25592;49.986;11.618;2022-08-21T15:38:03;32.70;51.30
39925;DHT22;25592;49.986;11.618;2022-08-21T15:40:49;32.90;51.70
39925;DHT22;25592;49.986;11.618;2022-08-21T15:43:50;32.90;52.60
39925;DHT22;25592;49.986;11.618;2022-08-21T15:46:36;33.10;51.90
39925;DHT22;25592;49.986;11.618;2022-08-21T15:49:22;33.10;51.80
39925;DHT22;25592;49.986;11.618;2022-08-21T15:52:08;33.20;51.50
39925;DHT22;25592;49.986;11.618;2022-08-21T15:54:53;33.20;52.40
39925;DHT22;25592;49.986;11.618;2022-08-21T15:57:44;33.10;50.70
39925;DHT22;25592;49.986;11.618;2022-08-21T16:00:43;32.70;51.10
39925;DHT22;25592;49.986;11.618;2022-08-21T16:03:29;32.60;52.20
39925;DHT22;25592;49.986;11.618;2022-08-21T16:06:15;32.60;51.70
39925;DHT22;25592;49.986;11.618;2022-08-21T16:09:00;32.30;54.20
39925;DHT22;25592;49.986;11.618;2022-08-21T16:11:46;32.50;54.60
39925;DHT22;25592;49.986;11.618;2022-08-21T16:14:33;32.40;53.80
39925;DHT22;25592;49.986;11.618;2022-08-21T16:17:21;32.10;53.10
39925;DHT22;25592;49.986;11.618;2022-08-21T16:20:13;32.10;54.20
39925;DHT22;25592;49.986;11.618;2022-08-21T16:22:58;32.10;52.90
39925;DHT22;25592;49.986;11.618;2022-08-21T16:25:44;32.10;54.00
39925;DHT22;25592;49.986;11.618;2022-08-21T16:28:30;32.10;53.20
39925;DHT22;25592;49.986;11.618;2022-08-21T16:31:16;32.00;53.90
39925;DHT22;25592;49.986;11.618;2022-08-21T16:34:02;31.70;54.20
39925;DHT22;25592;49.986;11.618;2022-08-21T16:36:47;31.40;54.30
39925;DHT22;25592;49.986;11.618;2022-08-21T16:39:32;31.00;54.50
39925;DHT22;25592;49.986;11.618;2022-08-21T16:42:21;30.70;55.60
39925;DHT22;25592;49.986;11.618;2022-08-21T16:45:09;30.70;55.70
39925;DHT22;25592;49.986;11.618;2022-08-21T16:47:55;30.80;55.70
39925;DHT22;25592;49.986;11.618;2022-08-21T16:50:41;30.90;55.30
39925;DHT22;25592;49.986;11.618;2022-08-21T16:53:26;31.00;55.60
39925;DHT22;25592;49.986;11.618;2022-08-21T16:56:13;31.00;55.00
39925;DHT22;25592;49.986;11.618;2022-08-21T16:58:59;30.90;56.00
39925;DHT22;25592;49.986;11.618;2022-08-21T17:01:45;30.90;55.80
39925;DHT22;25592;49.986;11.618;2022-08-21T17:04:31;30.50;56.70
39925;DHT22;25592;49.986;11.618;2022-08-21T17:07:16;30.50;57.20
39925;DHT22;25592;49.986;11.618;2022-08-21T17:10:02;30.50;57.30
39925;DHT22;25592;49.986;11.618;2022-08-21T17:12:52;30.30;57.50
39925;DHT22;25592;49.986;11.618;2022-08-21T17:15:40;30.30;57.50
39925;DHT22;25592;49.986;11.618;2022-08-21T17:18:25;30.20;58.10
39925;DHT22;25592;49.986;11.618;2022-08-21T17:21:11;30.10;57.90
39925;DHT22;25592;49.986;11.618;2022-08-21T17:24:03;29.60;57.20
39925;DHT22;25592;49.986;11.618;2022-08-21T17:26:48;29.50;57.90
39925;DHT22;25592;49.986;11.618;2022-08-21T17:29:36;29.50;58.80
39925;DHT22;25592;49.986;11.618;2022-08-21T17:32:23;29.50;59.10
39925;DHT22;25592;49.986;11.618;2022-08-21T17:35:09;29.30;59.30
39925;DHT22;25592;49.986;11.618;2022-08-21T17:37:55;29.30;59.70
39925;DHT22;25592;49.986;11.618;2022-08-21T17:40:42;29.20;60.00
39925;DHT22;25592;49.986;11.618;2022-08-21T17:43:27;29.10;59.80
39925;DHT22;25592;49.986;11.618;2022-08-21T17:46:18;28.90;61.30
39925;DHT22;25592;49.986;11.618;2022-08-21T17:49:05;28.80;61.50
39925;DHT22;25592;49.986;11.618;2022-08-21T17:51:51;28.70;62.00
39925;DHT22;25592;49.986;11.618;2022-08-21T17:54:37;28.60;62.30
39925;DHT22;25592;49.986;11.618;2022-08-21T17:57:25;28.50;63.00
39925;DHT22;25592;49.986;11.618;2022-08-21T18:00:15;28.40;64.20
39925;DHT22;25592;49.986;11.618;2022-08-21T18:03:04;28.20;65.30
39925;DHT22;25592;49.986;11.618;2022-08-21T18:05:50;28.20;64.40
39925;DHT22;25592;49.986;11.618;2022-08-21T18:08:39;27.80;62.00
39925;DHT22;25592;49.986;11.618;2022-08-21T18:11:28;27.50;62.80
39925;DHT22;25592;49.986;11.618;2022-08-21T18:14:14;27.30;63.60
39925;DHT22;25592;49.986;11.618;2022-08-21T18:17:00;27.20;63.20
39925;DHT22;25592;49.986;11.618;2022-08-21T18:19:45;27.00;64.00
39925;DHT22;25592;49.986;11.618;2022-08-21T18:22:33;26.90;64.60
39925;DHT22;25592;49.986;11.618;2022-08-21T18:25:19;26.90;64.70
39925;DHT22;25592;49.986;11.618;2022-08-21T18:28:05;26.80;64.50
39925;DHT22;25592;49.986;11.618;2022-08-21T18:30:52;26.70;64.70